Time;durP1;ratioP1;P1;durP2;ratioP2;P2;SDS_P1;SDS_P2;PMS_P1;PMS_P2;Temp;Humidity;BMP_temperature;BMP_pressure;BME280_temperature;BME280_humidity;BME280_pressure;Samples;Min_cycle;Max_cycle;Signal;HPM_P1;HPM_P2
2022/10/21 00:00:48;;;;;;;16.00;6.55;;;17.60;99.90;;;;;;5074566;28;20036;-67
2022/10/21 00:03:14;;;;;;;14.77;5.82;;;17.50;99.90;;;;;;5074760;28;20025;-67
2022/10/21 00:05:40;;;;;;;15.38;5.60;;;17.40;99.90;;;;;;5074647;28;20469;-72
2022/10/21 00:08:06;;;;;;;16.92;5.43;;;17.40;99.90;;;;;;5074808;28;20071;-72
2022/10/21 00:10:31;;;;;;;18.50;5.75;;;17.40;99.90;;;;;;5074371;28;20074;-72
2022/10/21 00:12:57;;;;;;;16.15;6.32;;;17.40;99.90;;;;;;5074093;28;20028;-72
2022/10/21 00:15:23;;;;;;;9.40;5.55;;;17.40;99.90;;;;;;5074603;28;20028;-72
2022/10/21 00:17:48;;;;;;;11.80;4.45;;;17.40;99.90;;;;;;5074202;28;20021;-72
2022/10/21 00:20:14;;;;;;;11.40;5.63;;;17.30;99.90;;;;;;5073564;28;20028;-73
2022/10/21 00:22:40;;;;;;;9.75;4.72;;;17.30;99.90;;;;;;5074016;28;20028;-72
2022/10/21 00:25:07;;;;;;;12.93;4.85;;;17.20;99.90;;;;;;5074046;28;20048;-72
2022/10/21 00:27:33;;;;;;;16.63;4.93;;;17.20;99.90;;;;;;5073656;28;20037;-72
2022/10/21 00:29:59;;;;;;;12.55;4.43;;;17.30;99.90;;;;;;5074174;28;20032;-73
2022/10/21 00:32:24;;;;;;;14.73;4.53;;;17.20;99.90;;;;;;5074153;28;20028;-72
2022/10/21 00:34:50;;;;;;;10.38;4.10;;;17.10;99.90;;;;;;5073979;28;20368;-72
2022/10/21 00:37:16;;;;;;;12.85;4.88;;;17.10;99.90;;;;;;5073982;28;20488;-73
2022/10/21 00:39:42;;;;;;;14.23;4.70;;;17.10;99.90;;;;;;5073910;28;20027;-71
2022/10/21 00:42:18;;;;;;;10.13;4.45;;;17.10;99.90;;;;;;5073409;28;20033;-71
2022/10/21 00:45:03;;;;;;;7.93;3.75;;;17.20;99.90;;;;;;5073731;28;20124;-72
2022/10/21 00:47:30;;;;;;;12.13;4.55;;;17.10;99.90;;;;;;5072173;28;20032;-72
2022/10/21 00:49:58;;;;;;;9.82;3.90;;;17.00;99.90;;;;;;5075193;28;20066;-72
2022/10/21 00:52:26;;;;;;;7.60;3.63;;;17.10;99.90;;;;;;5079118;28;20034;-72
2022/10/21 00:54:55;;;;;;;9.75;3.60;;;17.00;99.90;;;;;;5089151;28;20021;-72
2022/10/21 00:57:22;;;;;;;11.85;3.65;;;17.10;99.90;;;;;;5083459;28;20032;-72
2022/10/21 00:59:52;;;;;;;8.15;3.38;;;17.00;99.90;;;;;;5093735;28;20107;-71
2022/10/21 01:02:18;;;;;;;13.05;3.00;;;17.00;99.90;;;;;;5093691;28;20024;-72
2022/10/21 01:04:45;;;;;;;12.15;4.30;;;16.90;99.90;;;;;;5079157;28;20040;-71
2022/10/21 01:07:11;;;;;;;8.07;3.25;;;16.90;99.90;;;;;;5075553;28;20073;-72
2022/10/21 01:09:37;;;;;;;9.90;3.40;;;16.90;99.90;;;;;;5093697;28;20040;-72
2022/10/21 01:12:08;;;;;;;10.23;3.70;;;16.90;99.90;;;;;;5069663;28;20012;-72
2022/10/21 01:14:45;;;;;;;7.25;3.88;;;16.90;99.90;;;;;;5093708;28;20042;-73
2022/10/21 01:17:24;;;;;;;8.93;3.33;;;16.90;99.90;;;;;;5093458;28;20076;-72
2022/10/21 01:20:20;;;;;;;7.45;3.08;;;16.90;99.90;;;;;;5093522;28;20090;-72
2022/10/21 01:23:19;;;;;;;10.02;3.22;;;16.80;99.90;;;;;;5070382;28;20062;-72
2022/10/21 01:26:00;;;;;;;9.43;3.20;;;16.80;99.90;;;;;;5092579;28;20051;-72
2022/10/21 01:28:25;;;;;;;10.25;3.60;;;16.90;99.90;;;;;;5093254;28;20042;-72
2022/10/21 01:30:58;;;;;;;10.90;3.80;;;16.90;99.90;;;;;;5093100;28;20020;-72
2022/10/21 01:33:48;;;;;;;12.27;3.60;;;16.80;99.90;;;;;;5093483;28;20377;-71
2022/10/21 01:36:17;;;;;;;9.40;3.63;;;16.70;99.90;;;;;;5068045;28;20392;-72
2022/10/21 01:39:05;;;;;;;6.43;2.95;;;16.70;99.90;;;;;;5093008;28;20528;-72
2022/10/21 01:41:38;;;;;;;10.77;3.05;;;16.50;99.90;;;;;;5070293;28;20085;-69
2022/10/21 01:44:10;;;;;;;4.40;2.50;;;16.50;99.90;;;;;;5092766;28;20044;-68
2022/10/21 01:46:38;;;;;;;;;;;16.40;99.90;;;;;;5093491;28;20077;-68
2022/10/21 01:49:12;;;;;;;6.45;3.05;;;16.20;99.90;;;;;;5092868;28;19995;-69
2022/10/21 01:51:39;;;;;;;5.75;2.30;;;16.20;99.90;;;;;;5092966;28;20059;-69
2022/10/21 01:54:21;;;;;;;5.65;2.85;;;16.20;99.90;;;;;;5092588;28;20377;-68
2022/10/21 01:56:48;;;;;;;11.80;2.72;;;16.40;99.90;;;;;;5050352;28;20024;-70
2022/10/21 01:59:16;;;;;;;11.90;2.42;;;16.30;99.90;;;;;;5092838;28;20036;-71
2022/10/21 02:01:45;;;;;;;7.20;2.15;;;16.20;99.90;;;;;;5064892;28;20118;-71
2022/10/21 02:04:14;;;;;;;8.40;2.20;;;16.20;99.90;;;;;;5092680;28;20048;-70
2022/10/21 02:06:39;;;;;;;7.78;2.50;;;16.20;99.90;;;;;;5092734;28;20020;-70
2022/10/21 02:09:05;;;;;;;9.40;2.22;;;16.10;99.90;;;;;;5092319;28;20035;-71
2022/10/21 02:11:33;;;;;;;5.30;1.88;;;16.20;99.90;;;;;;5092627;28;20034;-69
2022/10/21 02:14:08;;;;;;;5.32;2.38;;;16.10;99.90;;;;;;5092559;28;20059;-67
2022/10/21 02:16:37;;;;;;;6.55;2.17;;;16.00;99.90;;;;;;5092706;28;20028;-69
2022/10/21 02:19:04;;;;;;;9.93;2.67;;;16.00;99.90;;;;;;5092551;28;20562;-70
2022/10/21 02:21:35;;;;;;;6.85;2.72;;;16.10;99.90;;;;;;5092624;28;20032;-67
2022/10/21 02:24:25;;;;;;;7.47;2.03;;;16.10;99.90;;;;;;5092185;28;20067;-68
2022/10/21 02:26:51;;;;;;;5.47;2.10;;;15.90;99.90;;;;;;5092557;28;20123;-69
2022/10/21 02:29:21;;;;;;;8.20;2.17;;;16.00;99.90;;;;;;5074154;28;20419;-67
2022/10/21 02:32:08;;;;;;;14.73;2.72;;;16.00;99.90;;;;;;5092302;28;20028;-71
2022/10/21 02:34:52;;;;;;;10.43;2.03;;;16.00;99.90;;;;;;5092463;28;20027;-67
2022/10/21 02:37:47;;;;;;;6.35;2.20;;;16.00;99.90;;;;;;5092436;28;20040;-68
2022/10/21 02:40:22;;;;;;;6.13;2.05;;;16.00;99.90;;;;;;5074429;28;20134;-68
2022/10/21 02:42:57;;;;;;;4.07;2.00;;;15.90;99.90;;;;;;5093229;28;20048;-68
2022/10/21 02:45:23;;;;;;;4.85;1.77;;;15.80;99.90;;;;;;5096181;28;20074;-69
2022/10/21 02:47:49;;;;;;;10.45;2.35;;;15.80;99.90;;;;;;5078280;28;20405;-68
2022/10/21 02:50:16;;;;;;;9.50;1.92;;;15.80;99.90;;;;;;5096173;28;20074;-72
2022/10/21 02:52:41;;;;;;;5.88;2.00;;;15.80;99.90;;;;;;5095971;28;20024;-71
2022/10/21 02:55:07;;;;;;;8.00;2.13;;;15.80;99.90;;;;;;5088305;28;20031;-72
2022/10/21 02:57:33;;;;;;;3.42;2.08;;;15.80;99.90;;;;;;5090280;28;20043;-72
2022/10/21 02:59:59;;;;;;;5.93;2.10;;;15.90;99.90;;;;;;5067687;28;20055;-72
2022/10/21 03:02:25;;;;;;;10.45;2.33;;;15.90;99.90;;;;;;5096263;28;20028;-73
2022/10/21 03:04:50;;;;;;;7.03;2.08;;;15.80;99.90;;;;;;5095713;28;20093;-72
2022/10/21 03:07:16;;;;;;;5.40;2.10;;;15.70;99.90;;;;;;5095832;28;20085;-72
2022/10/21 03:09:42;;;;;;;8.65;2.30;;;15.60;99.90;;;;;;5095604;28;20437;-72
2022/10/21 03:12:07;;;;;;;7.90;2.13;;;15.60;99.90;;;;;;5095629;28;20023;-72
2022/10/21 03:14:33;;;;;;;14.50;2.75;;;15.40;99.90;;;;;;5095813;28;20469;-72
2022/10/21 03:16:59;;;;;;;12.63;2.35;;;15.40;99.90;;;;;;5095697;28;20031;-72
2022/10/21 03:19:24;;;;;;;5.75;2.00;;;15.30;99.90;;;;;;5095458;28;20119;-72
2022/10/21 03:21:50;;;;;;;12.93;2.13;;;15.30;99.90;;;;;;5095148;28;20024;-72
2022/10/21 03:24:16;;;;;;;3.97;2.20;;;15.30;99.90;;;;;;5095555;28;20140;-72
2022/10/21 03:26:42;;;;;;;9.77;2.38;;;15.40;99.90;;;;;;5095198;28;20024;-72
2022/10/21 03:29:07;;;;;;;8.50;2.67;;;15.40;99.90;;;;;;5095336;28;20468;-72
2022/10/21 03:31:33;;;;;;;12.10;2.38;;;15.40;99.90;;;;;;5095244;28;20016;-72
2022/10/21 03:33:59;;;;;;;9.07;2.53;;;15.50;99.90;;;;;;5095130;28;20043;-70
2022/10/21 03:36:24;;;;;;;12.05;2.42;;;15.50;99.90;;;;;;5094922;28;20117;-71
2022/10/21 03:38:50;;;;;;;13.65;2.80;;;15.40;99.90;;;;;;5095178;28;20035;-71
2022/10/21 03:41:16;;;;;;;10.43;2.67;;;15.20;99.90;;;;;;5095133;28;20081;-71
2022/10/21 03:43:42;;;;;;;8.15;2.80;;;15.10;99.90;;;;;;5094929;28;20491;-69
2022/10/21 03:46:08;;;;;;;12.30;2.60;;;15.10;99.90;;;;;;5077016;28;20024;-69
2022/10/21 03:48:33;;;;;;;4.95;2.40;;;15.20;99.90;;;;;;5095183;28;20032;-70
2022/10/21 03:50:59;;;;;;;7.55;2.80;;;15.30;99.90;;;;;;5094708;28;20024;-71
2022/10/21 03:53:25;;;;;;;7.95;2.50;;;15.20;99.90;;;;;;5095229;28;20468;-70
2022/10/21 03:55:51;;;;;;;10.57;2.72;;;15.20;99.90;;;;;;5079413;28;20032;-67
2022/10/21 03:58:17;;;;;;;8.90;2.90;;;15.30;99.90;;;;;;5066576;28;20074;-69
2022/10/21 04:00:43;;;;;;;7.22;2.95;;;15.30;99.90;;;;;;5095051;28;20545;-69
2022/10/21 04:03:09;;;;;;;13.65;2.63;;;15.30;99.90;;;;;;5094784;28;20097;-69
2022/10/21 04:05:36;;;;;;;6.97;2.80;;;15.30;99.90;;;;;;5084671;28;20058;-72
2022/10/21 04:08:02;;;;;;;11.43;3.08;;;15.30;99.90;;;;;;5090922;28;20017;-70
2022/10/21 04:10:27;;;;;;;7.57;2.40;;;15.20;99.90;;;;;;5094961;28;20495;-72
2022/10/21 04:12:53;;;;;;;7.20;2.72;;;14.90;99.90;;;;;;5094526;28;20036;-71
2022/10/21 04:15:19;;;;;;;9.52;2.78;;;14.90;99.90;;;;;;5094669;28;20073;-72
2022/10/21 04:17:45;;;;;;;10.90;2.72;;;14.90;99.90;;;;;;5094425;28;20032;-72
2022/10/21 04:20:11;;;;;;;5.07;3.03;;;14.90;99.90;;;;;;5094285;28;20028;-69
2022/10/21 04:22:37;;;;;;;9.82;2.80;;;15.10;99.90;;;;;;5094623;28;20020;-71
2022/10/21 04:25:03;;;;;;;13.80;2.63;;;15.10;99.90;;;;;;5093937;28;20042;-67
2022/10/21 04:27:29;;;;;;;7.70;2.83;;;15.00;99.90;;;;;;5094282;28;20032;-67
2022/10/21 04:29:55;;;;;;;9.23;3.45;;;15.00;99.90;;;;;;5075971;28;20525;-67
2022/10/21 04:32:21;;;;;;;4.68;2.45;;;15.00;99.90;;;;;;5094151;28;20066;-67
2022/10/21 04:34:46;;;;;;;11.93;3.00;;;15.00;99.90;;;;;;5093978;28;20536;-67
2022/10/21 04:37:12;;;;;;;12.48;3.30;;;15.00;99.90;;;;;;5094046;28;20024;-67
2022/10/21 04:39:38;;;;;;;6.05;2.55;;;15.10;99.90;;;;;;5094311;28;20080;-68
2022/10/21 04:42:04;;;;;;;8.35;2.80;;;15.10;99.90;;;;;;5093924;28;20024;-71
2022/10/21 04:44:29;;;;;;;13.63;2.78;;;15.00;99.90;;;;;;5085601;28;20044;-72
2022/10/21 04:46:55;;;;;;;12.68;2.60;;;15.10;99.90;;;;;;5088068;28;20039;-70
2022/10/21 04:49:21;;;;;;;14.38;2.42;;;15.30;99.90;;;;;;5093877;28;20053;-71
2022/10/21 04:51:48;;;;;;;12.45;3.33;;;15.20;99.90;;;;;;5093836;28;20035;-71
2022/10/21 04:54:13;;;;;;;10.90;2.72;;;15.20;99.90;;;;;;5093246;28;20023;-70
2022/10/21 04:56:40;;;;;;;14.80;3.88;;;15.10;99.90;;;;;;5080335;28;20376;-69
2022/10/21 04:59:06;;;;;;;12.82;2.72;;;15.00;99.90;;;;;;5093711;28;20093;-71
2022/10/21 05:01:32;;;;;;;11.85;3.10;;;15.00;99.90;;;;;;5075440;28;20020;-72
2022/10/21 05:03:58;;;;;;;12.48;2.90;;;15.10;99.90;;;;;;5093382;28;20028;-71
2022/10/21 05:06:24;;;;;;;10.32;2.53;;;15.00;99.90;;;;;;5079377;28;20035;-72
2022/10/21 05:08:49;;;;;;;10.70;2.83;;;15.10;99.90;;;;;;5093337;28;20032;-72
2022/10/21 05:11:15;;;;;;;12.93;2.80;;;15.10;99.90;;;;;;5093461;28;20395;-71
2022/10/21 05:13:41;;;;;;;9.90;3.20;;;15.20;99.90;;;;;;5093373;28;20382;-72
2022/10/21 05:16:06;;;;;;;7.00;2.42;;;15.10;99.90;;;;;;5093651;28;20063;-72
2022/10/21 05:18:32;;;;;;;12.23;3.00;;;15.10;99.90;;;;;;5093084;28;20024;-72
2022/10/21 05:20:58;;;;;;;7.43;3.28;;;15.20;99.90;;;;;;5093431;28;20070;-71
2022/10/21 05:23:25;;;;;;;7.20;2.58;;;15.30;99.90;;;;;;5093040;28;20032;-71
2022/10/21 05:25:51;;;;;;;9.48;2.53;;;15.30;99.90;;;;;;5093198;28;20105;-71
2022/10/21 05:28:19;;;;;;;13.77;3.20;;;15.50;99.90;;;;;;5093045;28;20028;-71
2022/10/21 05:30:45;;;;;;;12.50;2.90;;;15.40;99.90;;;;;;5093196;28;20098;-71
2022/10/21 05:33:11;;;;;;;10.80;3.08;;;15.40;99.90;;;;;;5092968;28;20059;-71
2022/10/21 05:35:37;;;;;;;10.23;3.20;;;15.50;99.90;;;;;;5092973;28;20520;-71
2022/10/21 05:38:03;;;;;;;11.93;3.17;;;15.40;99.90;;;;;;5093096;28;20028;-70
2022/10/21 05:40:30;;;;;;;10.68;2.83;;;15.50;99.90;;;;;;5093014;28;20031;-71
2022/10/21 05:42:56;;;;;;;11.75;3.20;;;15.50;99.90;;;;;;5092964;28;20027;-71
2022/10/21 05:45:21;;;;;;;11.90;3.58;;;15.40;99.90;;;;;;5087101;28;20366;-71
2022/10/21 05:47:47;;;;;;;11.50;3.22;;;15.40;99.90;;;;;;5091304;28;20080;-72
2022/10/21 05:50:13;;;;;;;11.13;3.22;;;15.60;99.90;;;;;;5092639;28;20064;-68
2022/10/21 05:52:40;;;;;;;16.17;3.72;;;15.50;99.90;;;;;;5091054;28;20027;-71
2022/10/21 05:55:07;;;;;;;8.55;2.97;;;15.70;99.90;;;;;;5084814;28;20143;-72
2022/10/21 05:57:37;;;;;;;11.85;3.85;;;15.80;99.90;;;;;;5086539;28;20031;-70
2022/10/21 06:00:06;;;;;;;14.30;4.00;;;15.70;99.90;;;;;;5047658;28;20027;-70
2022/10/21 06:02:32;;;;;;;13.20;3.65;;;15.60;99.90;;;;;;5092769;28;20477;-71
2022/10/21 06:04:58;;;;;;;12.23;3.95;;;15.40;99.90;;;;;;5087654;28;20036;-72
2022/10/21 06:07:24;;;;;;;17.17;3.92;;;15.40;99.90;;;;;;5083705;28;20521;-70
2022/10/21 06:09:49;;;;;;;18.58;3.90;;;15.50;99.90;;;;;;5092549;28;20055;-71
2022/10/21 06:12:15;;;;;;;17.02;3.88;;;15.60;99.90;;;;;;5070304;28;20093;-66
2022/10/21 06:14:41;;;;;;;15.82;3.20;;;15.70;99.90;;;;;;5075798;28;20411;-69
2022/10/21 06:17:07;;;;;;;8.75;2.75;;;15.80;99.90;;;;;;5049200;28;20037;-68
2022/10/21 06:19:32;;;;;;;19.35;3.40;;;15.70;99.90;;;;;;5075168;28;20040;-69
2022/10/21 06:21:58;;;;;;;12.57;3.10;;;15.70;99.90;;;;;;5075580;28;20028;-70
2022/10/21 06:24:24;;;;;;;10.32;3.70;;;15.90;99.90;;;;;;5073021;28;20090;-68
2022/10/21 06:26:50;;;;;;;13.63;3.47;;;16.10;99.90;;;;;;5072597;28;20025;-69
2022/10/21 06:29:17;;;;;;;16.35;3.30;;;15.90;99.90;;;;;;5071888;28;20061;-67
2022/10/21 06:31:43;;;;;;;13.35;3.28;;;16.00;99.90;;;;;;5075020;28;20107;-69
2022/10/21 06:34:09;;;;;;;10.20;2.83;;;16.00;99.90;;;;;;5074994;28;20469;-68
2022/10/21 06:36:37;;;;;;;7.55;3.15;;;15.90;99.90;;;;;;5075177;28;20047;-68
2022/10/21 06:39:04;;;;;;;11.07;3.45;;;15.90;99.90;;;;;;5075281;28;20043;-68
2022/10/21 06:41:30;;;;;;;19.00;3.17;;;16.10;99.90;;;;;;5073998;28;20016;-67
2022/10/21 06:43:55;;;;;;;14.05;3.60;;;16.20;99.90;;;;;;5074922;28;20370;-68
2022/10/21 06:46:21;;;;;;;9.23;3.55;;;16.10;99.90;;;;;;5056804;28;20016;-67
2022/10/21 06:48:47;;;;;;;9.88;3.75;;;16.00;99.90;;;;;;5075217;28;20033;-69
2022/10/21 06:51:21;;;;;;;11.15;3.53;;;15.80;99.90;;;;;;5074495;28;20021;-71
2022/10/21 06:53:51;;;;;;;11.52;3.22;;;15.80;99.90;;;;;;5075243;28;20032;-70
2022/10/21 06:56:18;;;;;;;12.98;3.10;;;16.00;99.90;;;;;;5078779;28;20055;-69
2022/10/21 06:58:46;;;;;;;9.40;3.22;;;15.90;99.90;;;;;;5089822;28;20481;-69
2022/10/21 07:01:22;;;;;;;20.65;4.15;;;15.80;99.90;;;;;;5093369;28;20105;-73
2022/10/21 07:03:49;;;;;;;17.23;4.93;;;16.00;99.90;;;;;;5069159;28;20033;-72
2022/10/21 07:06:15;;;;;;;12.75;4.50;;;16.00;99.90;;;;;;5083568;28;20074;-73
2022/10/21 07:08:42;;;;;;;10.75;3.60;;;16.00;99.90;;;;;;5072041;28;20020;-72
2022/10/21 07:11:10;;;;;;;12.75;3.28;;;16.00;99.90;;;;;;5092743;28;20030;-73
2022/10/21 07:13:36;;;;;;;15.20;3.65;;;16.10;99.90;;;;;;5076973;28;20063;-72
2022/10/21 07:16:04;;;;;;;13.27;3.22;;;16.20;99.90;;;;;;5074572;28;20021;-73
2022/10/21 07:18:31;;;;;;;14.02;3.50;;;16.10;99.90;;;;;;5072796;28;20043;-71
2022/10/21 07:21:06;;;;;;;71.35;8.45;;;15.90;99.90;;;;;;5067436;28;20028;-67
2022/10/21 07:23:32;;;;;;;46.25;6.00;;;16.10;99.90;;;;;;5072408;28;20047;-70
2022/10/21 07:26:01;;;;;;;24.50;4.82;;;16.00;99.90;;;;;;5068278;28;20119;-69
2022/10/21 07:28:26;;;;;;;19.60;4.18;;;16.10;99.90;;;;;;5063061;28;20085;-71
2022/10/21 07:30:52;;;;;;;20.50;4.70;;;16.10;99.90;;;;;;5074287;28;20044;-72
2022/10/21 07:33:18;;;;;;;12.82;3.50;;;16.00;99.90;;;;;;5074071;28;20021;-71
2022/10/21 07:35:44;;;;;;;10.10;3.35;;;16.10;99.90;;;;;;5074179;28;20161;-71
2022/10/21 07:38:11;;;;;;;10.48;3.80;;;16.20;99.90;;;;;;5074355;28;20104;-72
2022/10/21 07:40:43;;;;;;;14.50;3.80;;;16.20;99.90;;;;;;5073906;28;20058;-72
2022/10/21 07:43:10;;;;;;;15.63;4.50;;;16.30;99.90;;;;;;5073816;28;20162;-72
2022/10/21 07:45:43;;;;;;;10.55;3.58;;;16.40;99.90;;;;;;5073860;28;20028;-71
2022/10/21 07:48:09;;;;;;;12.73;4.07;;;16.30;99.90;;;;;;5074103;28;20060;-72
2022/10/21 07:50:36;;;;;;;20.38;3.90;;;16.20;99.90;;;;;;5071337;28;20025;-72
2022/10/21 07:53:02;;;;;;;12.07;3.15;;;16.10;99.90;;;;;;5074195;28;20047;-72
2022/10/21 07:55:29;;;;;;;12.13;3.88;;;16.00;99.90;;;;;;5074089;28;20024;-72
2022/10/21 07:57:54;;;;;;;13.65;4.18;;;16.10;99.90;;;;;;5085846;28;20040;-71
2022/10/21 08:00:20;;;;;;;9.30;3.60;;;15.90;99.90;;;;;;5073769;28;20035;-71
2022/10/21 08:02:46;;;;;;;12.65;3.88;;;16.00;99.90;;;;;;5079781;28;20029;-72
2022/10/21 08:05:12;;;;;;;12.63;3.88;;;16.10;99.90;;;;;;5080931;28;20119;-68
2022/10/21 08:07:37;;;;;;;9.82;4.15;;;16.00;99.90;;;;;;5081544;28;20420;-72
2022/10/21 08:10:04;;;;;;;17.83;4.70;;;16.00;99.90;;;;;;5089013;28;20480;-69
2022/10/21 08:12:30;;;;;;;19.00;4.57;;;16.10;99.90;;;;;;5092151;28;20020;-68
2022/10/21 08:14:55;;;;;;;15.93;3.25;;;16.20;99.90;;;;;;5080864;28;20432;-67
2022/10/21 08:17:21;;;;;;;10.55;3.55;;;16.20;99.90;;;;;;5080317;28;20088;-69
2022/10/21 08:19:47;;;;;;;10.80;4.05;;;16.00;99.90;;;;;;5082847;28;20028;-68
2022/10/21 08:22:13;;;;;;;15.38;4.50;;;16.00;99.90;;;;;;5079998;28;20419;-67
2022/10/21 08:24:38;;;;;;;12.70;4.10;;;16.00;99.90;;;;;;5072865;28;20039;-67
2022/10/21 08:27:04;;;;;;;10.48;3.45;;;16.20;99.90;;;;;;5072511;28;20052;-67
2022/10/21 08:29:30;;;;;;;18.30;4.22;;;16.20;99.90;;;;;;5072392;28;20397;-68
2022/10/21 08:31:56;;;;;;;12.13;3.60;;;16.20;99.90;;;;;;5066560;28;20031;-68
2022/10/21 08:34:22;;;;;;;12.35;3.67;;;16.40;99.90;;;;;;5056933;28;20033;-68
2022/10/21 08:36:48;;;;;;;13.18;4.03;;;16.50;99.90;;;;;;5072887;28;20028;-67
2022/10/21 08:39:14;;;;;;;9.70;3.15;;;16.70;99.90;;;;;;5073349;28;20409;-68
2022/10/21 08:41:54;;;;;;;15.82;3.80;;;16.60;99.90;;;;;;5072003;28;20020;-68
2022/10/21 08:44:36;;;;;;;14.55;3.33;;;16.70;99.90;;;;;;5064046;28;20036;-68
2022/10/21 08:47:21;;;;;;;14.10;3.38;;;16.70;99.90;;;;;;5072746;28;20087;-68
2022/10/21 08:49:53;;;;;;;10.02;3.40;;;16.90;99.90;;;;;;5051435;28;20050;-68
2022/10/21 08:52:24;;;;;;;16.42;3.72;;;16.80;99.90;;;;;;5071642;28;20082;-68
2022/10/21 08:54:53;;;;;;;;;;;16.90;99.90;;;;;;5072200;28;20028;-67
2022/10/21 08:57:19;;;;;;;7.25;2.55;;;17.10;99.90;;;;;;5064287;28;19908;-68
2022/10/21 08:59:45;;;;;;;7.68;3.20;;;16.90;99.90;;;;;;5088894;28;20039;-68
2022/10/21 09:02:20;;;;;;;15.20;3.08;;;16.80;99.90;;;;;;5083246;28;20024;-68
2022/10/21 09:05:28;;;;;;;8.65;2.78;;;17.00;99.90;;;;;;5060833;28;20044;-68
2022/10/21 09:08:11;;;;;;;6.63;2.05;;;17.10;99.90;;;;;;5076310;28;20481;-68
2022/10/21 09:10:54;;;;;;;7.65;2.03;;;17.30;99.90;;;;;;5087161;28;20496;-68
2022/10/21 09:13:35;;;;;;;7.20;2.70;;;17.40;99.90;;;;;;5073952;28;20028;-68
2022/10/21 09:16:19;;;;;;;8.10;2.20;;;17.60;99.90;;;;;;5092896;28;20024;-68
2022/10/21 09:18:58;;;;;;;8.40;2.08;;;17.50;99.90;;;;;;5066035;28;20061;-67
2022/10/21 09:21:41;;;;;;;5.22;2.10;;;17.60;99.90;;;;;;5092325;28;20035;-68
2022/10/21 09:24:31;;;;;;;9.43;2.25;;;17.80;99.90;;;;;;5092900;28;20063;-70
2022/10/21 09:26:57;;;;;;;6.85;1.85;;;17.70;99.90;;;;;;5041646;28;20054;-68
2022/10/21 09:29:25;;;;;;;10.25;1.83;;;17.80;99.90;;;;;;5093187;28;20016;-67
2022/10/21 09:31:52;;;;;;;2.47;1.33;;;18.40;99.90;;;;;;5093071;28;20032;-68
2022/10/21 09:34:28;;;;;;;4.78;1.85;;;18.60;99.90;;;;;;5092972;28;20103;-67
2022/10/21 09:36:56;;;;;;;2.72;1.58;;;18.60;99.90;;;;;;5074725;28;20060;-70
2022/10/21 09:39:40;;;;;;;5.80;1.73;;;18.40;99.90;;;;;;5092779;28;20063;-68
2022/10/21 09:42:11;;;;;;;7.88;1.38;;;18.70;99.90;;;;;;5092869;28;20122;-68
2022/10/21 09:44:37;;;;;;;5.57;1.33;;;18.80;99.90;;;;;;5092710;28;20461;-67
2022/10/21 09:47:16;;;;;;;5.97;1.55;;;18.80;99.90;;;;;;5091401;28;20020;-67
2022/10/21 09:49:46;;;;;;;4.55;1.85;;;18.80;99.90;;;;;;5073154;28;20016;-68
2022/10/21 09:52:15;;;;;;;3.90;1.70;;;19.20;99.90;;;;;;5067709;28;20028;-67
2022/10/21 09:54:41;;;;;;;10.15;1.77;;;19.40;99.90;;;;;;5050868;28;20059;-68
2022/10/21 09:57:19;;;;;;;7.25;1.45;;;19.50;99.90;;;;;;5050953;28;20437;-68
2022/10/21 10:00:04;;;;;;;3.95;1.30;;;19.20;99.90;;;;;;5085045;28;20379;-67
2022/10/21 10:02:42;;;;;;;4.28;1.30;;;19.30;99.90;;;;;;5089795;28;20072;-67
2022/10/21 10:05:27;;;;;;;;;;;19.10;99.90;;;;;;5062718;28;20397;-72
2022/10/21 10:07:52;;;;;;;3.78;1.17;;;19.00;99.90;;;;;;5079265;28;19908;-72
2022/10/21 10:10:30;;;;;;;8.20;1.75;;;18.90;99.90;;;;;;5071457;28;20045;-68
2022/10/21 10:12:57;;;;;;;4.72;1.23;;;19.00;99.90;;;;;;5071474;28;20020;-72
2022/10/21 10:15:36;;;;;;;6.82;0.95;;;19.00;99.90;;;;;;5071786;28;20020;-73
2022/10/21 10:18:03;;;;;;;3.38;1.10;;;19.50;99.90;;;;;;5067386;28;20029;-71
2022/10/21 10:20:29;;;;;;;4.45;0.77;;;19.50;99.90;;;;;;5071003;28;20485;-72
2022/10/21 10:22:58;;;;;;;3.10;1.02;;;19.50;99.90;;;;;;5070892;28;20020;-72
2022/10/21 10:25:31;;;;;;;9.88;1.33;;;19.30;99.90;;;;;;5071023;28;20119;-71
2022/10/21 10:28:09;;;;;;;5.13;1.08;;;19.90;99.90;;;;;;5071678;28;20404;-72
2022/10/21 10:30:48;;;;;;;4.07;1.65;;;20.30;99.90;;;;;;5071908;28;20067;-73
2022/10/21 10:33:25;;;;;;;6.00;1.52;;;20.10;99.90;;;;;;5071856;28;20104;-75
2022/10/21 10:35:52;;;;;;;4.85;1.50;;;19.70;99.90;;;;;;5063814;28;20373;-71
2022/10/21 10:38:52;;;;;;;2.40;1.23;;;19.80;99.90;;;;;;5071764;28;20520;-71
2022/10/21 10:41:18;;;;;;;2.28;1.20;;;20.00;99.90;;;;;;5066696;28;20037;-75
2022/10/21 10:43:53;;;;;;;6.28;1.02;;;21.00;99.90;;;;;;5068522;28;20036;-71
2022/10/21 10:46:28;;;;;;;4.53;1.35;;;20.80;99.90;;;;;;5070696;28;20040;-71
2022/10/21 10:48:56;;;;;;;5.72;1.20;;;20.90;99.90;;;;;;5067857;28;20029;-69
2022/10/21 10:51:33;;;;;;;3.00;1.20;;;21.10;99.90;;;;;;5071743;28;20128;-72
2022/10/21 10:54:22;;;;;;;1.92;1.00;;;21.20;99.90;;;;;;5068422;28;20032;-72
2022/10/21 10:56:54;;;;;;;3.05;1.02;;;20.50;99.90;;;;;;5067765;28;20020;-72
2022/10/21 10:59:23;;;;;;;2.97;1.33;;;20.40;99.90;;;;;;5092032;28;20036;-72
2022/10/21 11:02:06;;;;;;;5.47;1.08;;;20.30;99.90;;;;;;5091959;28;20028;-67
2022/10/21 11:04:54;;;;;;;4.88;0.85;;;19.90;99.90;;;;;;5093758;28;20136;-66
2022/10/21 11:07:30;;;;;;;6.05;1.00;;;20.00;99.90;;;;;;5077705;28;20078;-67
2022/10/21 11:10:03;;;;;;;10.13;1.73;;;20.00;99.90;;;;;;5095460;28;20039;-66
2022/10/21 11:12:30;;;;;;;3.55;1.10;;;20.40;99.90;;;;;;5095828;28;20070;-66
2022/10/21 11:14:57;;;;;;;2.78;1.10;;;20.70;99.90;;;;;;5095596;28;20506;-66
2022/10/21 11:17:43;;;;;;;2.58;1.10;;;20.50;99.90;;;;;;5095882;28;20480;-66
2022/10/21 11:20:18;;;;;;;5.70;1.48;;;20.70;99.90;;;;;;5095171;28;20031;-67
2022/10/21 11:23:05;;;;;;;2.67;0.90;;;20.80;99.90;;;;;;5095344;28;20472;-67
2022/10/21 11:25:53;;;;;;;2.40;0.75;;;21.00;99.90;;;;;;5067216;28;20070;-67
2022/10/21 11:28:34;;;;;;;2.80;1.00;;;20.50;99.90;;;;;;5095385;28;20086;-67
2022/10/21 11:31:22;;;;;;;6.63;1.27;;;20.50;99.90;;;;;;5076925;28;20036;-67
2022/10/21 11:33:58;;;;;;;3.15;0.80;;;20.50;99.90;;;;;;5095274;28;20560;-66
2022/10/21 11:36:50;;;;;;;2.47;0.88;;;20.40;99.90;;;;;;5094878;28;20066;-66
2022/10/21 11:39:25;;;;;;;3.75;0.77;;;20.50;99.90;;;;;;5069945;28;20043;-66
2022/10/21 11:41:58;;;;;;;10.60;1.63;;;20.60;99.90;;;;;;5095288;28;20498;-67
2022/10/21 11:44:31;;;;;;;2.38;1.10;;;21.50;99.90;;;;;;5095168;28;20043;-67
2022/10/21 11:47:15;;;;;;;2.88;0.85;;;21.30;99.90;;;;;;5076847;28;20032;-67
2022/10/21 11:49:58;;;;;;;4.20;1.08;;;20.90;99.90;;;;;;5094937;28;20554;-67
2022/10/21 11:52:30;;;;;;;5.03;1.38;;;20.80;99.90;;;;;;5094964;28;20411;-67
2022/10/21 11:55:20;;;;;;;;;;;21.10;99.90;;;;;;5088971;28;20029;-67
2022/10/21 11:57:48;;;;;;;3.10;0.90;;;21.80;99.90;;;;;;5090826;28;19951;-67
2022/10/21 12:00:21;;;;;;;4.95;1.10;;;22.00;99.90;;;;;;5094653;28;20384;-67
2022/10/21 12:03:37;;;;;;;3.80;1.02;;;22.50;99.90;;;;;;5094517;28;20032;-67
2022/10/21 12:06:12;;;;;;;5.55;1.00;;;22.60;99.90;;;;;;4993023;28;20046;-67
2022/10/21 12:08:58;;;;;;;4.97;1.00;;;23.10;99.90;;;;;;5090595;28;20040;-66
2022/10/21 12:11:33;;;;;;;5.97;1.45;;;23.20;99.90;;;;;;5094647;28;20028;-67
2022/10/21 12:14:14;;;;;;;4.07;1.00;;;23.40;99.90;;;;;;5094843;28;20027;-66
2022/10/21 12:16:40;;;;;;;2.97;1.40;;;22.80;99.90;;;;;;5093360;28;20540;-67
2022/10/21 12:19:12;;;;;;;4.80;1.20;;;23.20;99.90;;;;;;5094304;28;20067;-67
2022/10/21 12:21:39;;;;;;;;;;;23.70;99.90;;;;;;5094766;28;20036;-67
2022/10/21 12:24:25;;;;;;;4.13;1.15;;;23.50;99.90;;;;;;5094691;28;19915;-67
2022/10/21 12:27:05;;;;;;;10.48;1.00;;;23.40;99.90;;;;;;5094373;28;20131;-67
2022/10/21 12:30:07;;;;;;;5.03;1.10;;;23.80;99.90;;;;;;5094059;28;20032;-66
2022/10/21 12:33:11;;;;;;;1.90;0.95;;;23.50;99.90;;;;;;5089990;28;20028;-67
2022/10/21 12:35:52;;;;;;;3.45;1.00;;;23.70;99.90;;;;;;5076066;28;20071;-67
2022/10/21 12:38:50;;;;;;;5.90;1.35;;;23.20;99.90;;;;;;5094400;28;20043;-67
2022/10/21 12:41:33;;;;;;;6.32;1.80;;;23.10;99.90;;;;;;5073740;28;20072;-67
2022/10/21 12:44:05;;;;;;;5.28;0.90;;;23.80;99.90;;;;;;5093711;28;20102;-67
2022/10/21 12:46:35;;;;;;;;;;;24.90;99.90;;;;;;5076561;28;20372;-67
2022/10/21 12:49:16;;;;;;;10.38;1.20;;;24.60;99.90;;;;;;5093471;28;20035;-67
2022/10/21 12:51:48;;;;;;;5.95;1.00;;;24.80;99.90;;;;;;5094071;28;20075;-67
2022/10/21 12:54:18;;;;;;;6.55;1.00;;;24.80;99.90;;;;;;5093133;28;20540;-67
2022/10/21 12:56:59;;;;;;;8.02;1.30;;;24.20;99.90;;;;;;5081431;28;20008;-67
2022/10/21 12:59:40;;;;;;;6.27;1.10;;;25.30;99.90;;;;;;5093654;28;20063;-67
2022/10/21 13:02:08;;;;;;;4.10;1.08;;;26.30;99.90;;;;;;5093548;28;20306;-67